Time;durP1;ratioP1;P1;durP2;ratioP2;P2;SDS_P1;SDS_P2;PMS_P1;PMS_P2;Temp;Humidity;BMP_temperature;BMP_pressure;BME280_temperature;BME280_humidity;BME280_pressure;Samples;Min_cycle;Max_cycle;Signal;HPM_P1;HPM_P2
2022/02/26 00:01:36;;;;;;;10.40;5.50;;;5.20;99.90;;;;;;5028423;28;20427;-38
2022/02/26 00:04:02;;;;;;;13.53;5.70;;;5.20;99.90;;;;;;5024841;28;20211;-38
2022/02/26 00:06:27;;;;;;;11.20;5.03;;;5.10;99.90;;;;;;5025994;28;20473;-39
2022/02/26 00:08:53;;;;;;;12.70;5.70;;;5.10;99.90;;;;;;5030267;28;20278;-38
2022/02/26 00:11:19;;;;;;;13.50;6.00;;;5.00;99.90;;;;;;5030041;28;20723;-38
2022/02/26 00:13:45;;;;;;;15.63;5.60;;;5.10;99.90;;;;;;5030171;28;20244;-39
2022/02/26 00:16:10;;;;;;;12.07;6.20;;;5.00;99.90;;;;;;5029353;28;20420;-38
2022/02/26 00:18:36;;;;;;;13.77;6.57;;;4.80;99.90;;;;;;5029230;28;20198;-38
2022/02/26 00:21:02;;;;;;;10.40;6.40;;;4.70;99.90;;;;;;5019241;28;20214;-41
2022/02/26 00:23:27;;;;;;;10.53;6.30;;;4.70;99.90;;;;;;5030278;28;20812;-41
2022/02/26 00:25:53;;;;;;;15.90;6.63;;;4.80;99.90;;;;;;5029143;28;20233;-38
2022/02/26 00:28:20;;;;;;;11.73;5.90;;;4.70;99.90;;;;;;5030131;28;20198;-41
2022/02/26 00:30:46;;;;;;;15.60;7.20;;;4.70;99.90;;;;;;5029493;28;20187;-40
2022/02/26 00:33:13;;;;;;;16.00;7.53;;;4.60;99.90;;;;;;5030538;28;20424;-39
2022/02/26 00:35:39;;;;;;;20.17;8.10;;;4.60;99.90;;;;;;5022021;28;20441;-38
2022/02/26 00:38:05;;;;;;;13.50;6.83;;;4.70;99.90;;;;;;5030257;28;20426;-38
2022/02/26 00:40:31;;;;;;;15.33;7.40;;;4.70;99.90;;;;;;5029232;28;20433;-39
2022/02/26 00:42:58;;;;;;;17.50;7.60;;;4.50;99.90;;;;;;5029765;28;20495;-41
2022/02/26 00:45:24;;;;;;;9.93;7.53;;;4.40;99.90;;;;;;5029284;28;20476;-42
2022/02/26 00:47:50;;;;;;;15.67;7.83;;;4.50;99.90;;;;;;5028537;28;20462;-39
2022/02/26 00:50:15;;;;;;;12.50;7.23;;;4.40;99.90;;;;;;5017618;28;20438;-38
2022/02/26 00:52:41;;;;;;;19.00;8.33;;;4.40;99.90;;;;;;5028140;28;20908;-38
2022/02/26 00:55:08;;;;;;;13.83;7.30;;;4.40;99.90;;;;;;5029208;28;20868;-41
2022/02/26 00:57:34;;;;;;;13.03;7.40;;;4.20;99.90;;;;;;5029126;28;20441;-38
2022/02/26 01:00:00;;;;;;;12.37;6.97;;;4.40;99.90;;;;;;5029159;28;20432;-39
2022/02/26 01:02:26;;;;;;;11.60;8.03;;;4.20;99.90;;;;;;5028387;28;20285;-39
2022/02/26 01:04:52;;;;;;;14.80;7.60;;;4.30;99.90;;;;;;5021986;28;20218;-38
2022/02/26 01:07:18;;;;;;;17.10;7.80;;;4.30;99.90;;;;;;5026269;28;20413;-44
2022/02/26 01:09:44;;;;;;;15.33;7.03;;;4.30;99.90;;;;;;5028835;28;20437;-43
2022/02/26 01:12:10;;;;;;;13.87;7.80;;;4.60;99.90;;;;;;5029118;28;20539;-41
2022/02/26 01:14:38;;;;;;;13.63;7.13;;;4.40;99.90;;;;;;5029504;28;20613;-42
2022/02/26 01:17:06;;;;;;;14.43;7.50;;;4.50;99.90;;;;;;5029563;28;20755;-40
2022/02/26 01:19:32;;;;;;;15.33;7.40;;;4.50;99.90;;;;;;5025548;28;20449;-43
2022/02/26 01:21:57;;;;;;;14.47;7.73;;;4.70;99.90;;;;;;5023145;28;20461;-41
2022/02/26 01:24:23;;;;;;;15.23;7.50;;;4.90;99.90;;;;;;5029345;28;20519;-40
2022/02/26 01:26:50;;;;;;;14.00;7.53;;;5.00;99.90;;;;;;5029090;28;20359;-40
2022/02/26 01:29:16;;;;;;;9.90;7.30;;;4.80;99.90;;;;;;5029155;28;20427;-39
2022/02/26 01:31:42;;;;;;;18.70;8.77;;;4.90;99.90;;;;;;5028534;28;20873;-38
2022/02/26 01:34:08;;;;;;;19.40;8.27;;;4.80;99.90;;;;;;5028332;28;20512;-39
2022/02/26 01:36:34;;;;;;;17.10;6.80;;;4.60;99.90;;;;;;5019896;28;20436;-41
2022/02/26 01:39:02;;;;;;;18.57;8.10;;;4.70;99.90;;;;;;5028643;28;20425;-38
2022/02/26 01:41:29;;;;;;;20.17;7.50;;;4.50;99.90;;;;;;5028044;28;20433;-43
2022/02/26 01:43:59;;;;;;;15.30;7.17;;;4.70;99.90;;;;;;5028821;28;20518;-41
2022/02/26 01:46:25;;;;;;;18.30;7.33;;;4.70;99.90;;;;;;5029068;28;20421;-43
2022/02/26 01:48:51;;;;;;;11.13;6.30;;;4.70;99.90;;;;;;5029286;28;20460;-43
2022/02/26 01:51:17;;;;;;;13.43;6.30;;;4.60;99.90;;;;;;5016743;28;20444;-41
2022/02/26 01:53:44;;;;;;;15.10;5.97;;;4.60;99.90;;;;;;5028277;28;20896;-39
2022/02/26 01:56:11;;;;;;;12.87;6.27;;;4.60;99.90;;;;;;5028521;28;20409;-38
2022/02/26 01:58:38;;;;;;;15.13;7.67;;;4.60;99.90;;;;;;5028458;28;21008;-38
2022/02/26 02:01:05;;;;;;;12.43;6.60;;;4.60;99.90;;;;;;5027728;28;20425;-38
2022/02/26 02:03:32;;;;;;;15.20;6.60;;;4.70;99.90;;;;;;5028393;28;20777;-39
2022/02/26 02:05:59;;;;;;;11.90;6.53;;;4.60;99.90;;;;;;5017518;28;20441;-38
2022/02/26 02:08:25;;;;;;;6.90;6.07;;;4.70;99.90;;;;;;5025444;28;20818;-38
2022/02/26 02:10:53;;;;;;;9.90;6.00;;;4.50;99.90;;;;;;5027438;28;20421;-39
2022/02/26 02:13:19;;;;;;;10.30;5.70;;;4.60;99.90;;;;;;5010607;28;20490;-41
2022/02/26 02:15:45;;;;;;;13.23;6.30;;;4.40;99.90;;;;;;5026936;28;20464;-38
2022/02/26 02:18:13;;;;;;;9.80;6.37;;;4.60;99.90;;;;;;5028507;28;20512;-38
2022/02/26 02:20:40;;;;;;;11.43;6.60;;;4.50;99.90;;;;;;5018510;28;20444;-38
2022/02/26 02:23:06;;;;;;;20.73;7.90;;;4.60;99.90;;;;;;5023289;28;20469;-38
2022/02/26 02:25:34;;;;;;;18.50;7.00;;;4.40;99.90;;;;;;5028392;28;20503;-40
2022/02/26 02:28:01;;;;;;;17.13;7.10;;;4.30;99.90;;;;;;5027791;28;20178;-38
2022/02/26 02:30:28;;;;;;;14.70;7.23;;;4.30;99.90;;;;;;5027302;28;20441;-39
2022/02/26 02:32:55;;;;;;;19.90;7.33;;;4.30;99.90;;;;;;5028131;28;20421;-38
2022/02/26 02:35:34;;;;;;;11.27;7.80;;;4.20;99.90;;;;;;5021536;28;20972;-38
2022/02/26 02:38:04;;;;;;;16.03;9.67;;;4.40;99.90;;;;;;5027045;28;20460;-38
2022/02/26 02:40:30;;;;;;;12.93;6.40;;;4.30;99.90;;;;;;5026111;28;20995;-40
2022/02/26 02:42:56;;;;;;;19.30;8.40;;;4.20;99.90;;;;;;5014434;28;20520;-41
2022/02/26 02:45:23;;;;;;;14.43;7.60;;;4.40;99.90;;;;;;5028083;28;20253;-42
2022/02/26 02:47:49;;;;;;;14.30;7.33;;;4.20;99.90;;;;;;5026314;28;20475;-40
2022/02/26 02:50:15;;;;;;;18.13;7.87;;;3.90;99.90;;;;;;5003153;28;20841;-38
2022/02/26 02:52:43;;;;;;;14.23;7.60;;;4.10;99.90;;;;;;5022586;28;20418;-38
2022/02/26 02:55:09;;;;;;;16.67;8.70;;;3.90;99.90;;;;;;5026289;28;20425;-40
2022/02/26 02:57:35;;;;;;;14.27;8.13;;;4.10;99.90;;;;;;5027437;28;20483;-41
2022/02/26 03:00:02;;;;;;;13.50;7.40;;;4.10;99.90;;;;;;5026749;28;20483;-39
2022/02/26 03:02:28;;;;;;;19.03;8.43;;;4.30;99.90;;;;;;5020347;28;20995;-41
2022/02/26 03:04:54;;;;;;;13.70;8.93;;;4.30;99.90;;;;;;5025225;28;20465;-39
2022/02/26 03:07:19;;;;;;;14.83;8.83;;;4.10;99.90;;;;;;5020511;28;20190;-41
2022/02/26 03:09:45;;;;;;;17.17;8.37;;;4.20;99.90;;;;;;5026680;28;20191;-41
2022/02/26 03:12:10;;;;;;;18.67;8.30;;;4.30;99.90;;;;;;5027709;28;20646;-40
2022/02/26 03:14:37;;;;;;;17.27;9.37;;;4.20;99.90;;;;;;5027337;28;20600;-38
2022/02/26 03:17:03;;;;;;;18.63;8.97;;;4.20;99.90;;;;;;5013853;28;20240;-41
2022/02/26 03:19:29;;;;;;;15.43;9.87;;;4.30;99.90;;;;;;5027281;28;20433;-40
2022/02/26 03:21:54;;;;;;;16.53;8.40;;;4.30;99.90;;;;;;5018178;28;20425;-40
2022/02/26 03:24:20;;;;;;;14.97;9.00;;;4.30;99.90;;;;;;5027048;28;20329;-38
2022/02/26 03:26:45;;;;;;;14.27;8.57;;;4.30;99.90;;;;;;5026225;28;20593;-40
2022/02/26 03:29:11;;;;;;;16.67;9.50;;;4.50;99.90;;;;;;5027320;28;20456;-41
2022/02/26 03:31:38;;;;;;;18.40;9.70;;;4.40;99.90;;;;;;5013066;28;20191;-40
2022/02/26 03:34:04;;;;;;;16.10;9.20;;;4.20;99.90;;;;;;5027459;28;20193;-41
2022/02/26 03:36:34;;;;;;;17.90;8.37;;;4.10;99.90;;;;;;5019310;28;20943;-40
2022/02/26 03:39:00;;;;;;;19.83;10.60;;;4.20;99.90;;;;;;5027115;28;20432;-38
2022/02/26 03:41:26;;;;;;;19.13;9.60;;;4.20;99.90;;;;;;5026167;28;20421;-41
2022/02/26 03:43:52;;;;;;;15.90;8.20;;;4.20;99.90;;;;;;5026959;28;20457;-38
2022/02/26 03:46:17;;;;;;;14.70;9.00;;;4.10;99.90;;;;;;5026506;28;20194;-40
2022/02/26 03:48:43;;;;;;;20.37;11.13;;;4.20;99.90;;;;;;5027120;28;20273;-41
2022/02/26 03:51:10;;;;;;;21.93;8.50;;;4.20;99.90;;;;;;5014830;28;20693;-40
2022/02/26 03:53:36;;;;;;;15.27;9.10;;;4.20;99.90;;;;;;5026213;28;20597;-40
2022/02/26 03:56:02;;;;;;;19.20;10.40;;;4.10;99.90;;;;;;5025621;28;20417;-41
2022/02/26 03:58:28;;;;;;;17.70;10.43;;;4.00;99.90;;;;;;5026912;28;20447;-41
2022/02/26 04:00:53;;;;;;;17.50;8.83;;;4.00;99.90;;;;;;5026015;28;20872;-38
2022/02/26 04:03:19;;;;;;;10.70;7.63;;;4.10;99.90;;;;;;5026627;28;20199;-39
2022/02/26 04:05:45;;;;;;;18.60;9.20;;;3.90;99.90;;;;;;5021828;28;20785;-42
2022/02/26 04:08:11;;;;;;;12.60;9.10;;;3.90;99.90;;;;;;5022217;28;20183;-39
2022/02/26 04:10:36;;;;;;;17.90;9.07;;;4.20;99.90;;;;;;5026183;28;20191;-38
2022/02/26 04:13:03;;;;;;;13.43;9.00;;;4.00;99.90;;;;;;5026761;28;20693;-38
2022/02/26 04:15:29;;;;;;;19.03;9.30;;;4.00;99.90;;;;;;5026568;28;20178;-39
2022/02/26 04:17:55;;;;;;;12.23;9.00;;;4.20;99.90;;;;;;5026770;28;20934;-38
2022/02/26 04:20:21;;;;;;;16.40;9.30;;;4.10;99.90;;;;;;5024663;28;20425;-40
2022/02/26 04:22:47;;;;;;;12.47;8.27;;;4.20;99.90;;;;;;5013668;28;20471;-41
2022/02/26 04:25:13;;;;;;;22.50;9.40;;;3.90;99.90;;;;;;5027142;28;20584;-40
2022/02/26 04:27:39;;;;;;;20.00;9.93;;;4.00;99.90;;;;;;5026709;28;20578;-41
2022/02/26 04:30:09;;;;;;;16.47;8.90;;;4.30;99.90;;;;;;5027723;28;20420;-41
2022/02/26 04:32:35;;;;;;;23.20;9.80;;;4.00;99.90;;;;;;5030285;28;20425;-40
2022/02/26 04:35:01;;;;;;;13.73;9.50;;;4.10;99.90;;;;;;5030168;28;20432;-41
2022/02/26 04:37:27;;;;;;;15.33;8.27;;;4.00;99.90;;;;;;5018753;28;20548;-39
2022/02/26 04:39:53;;;;;;;12.47;8.27;;;3.90;99.90;;;;;;5027845;28;20512;-38
2022/02/26 04:42:19;;;;;;;18.33;9.50;;;3.80;99.90;;;;;;5030387;28;20622;-41
2022/02/26 04:44:44;;;;;;;15.40;8.97;;;3.80;99.90;;;;;;5030077;28;20460;-38
2022/02/26 04:47:14;;;;;;;18.93;10.13;;;3.80;99.90;;;;;;5030301;28;20273;-41
2022/02/26 04:49:40;;;;;;;15.40;8.80;;;3.90;99.90;;;;;;5029293;28;20194;-42
2022/02/26 04:52:06;;;;;;;14.50;9.20;;;3.80;99.90;;;;;;5018809;28;20788;-42
2022/02/26 04:54:32;;;;;;;17.90;9.70;;;3.70;99.90;;;;;;5029552;28;20421;-40
2022/02/26 04:56:58;;;;;;;12.10;8.60;;;3.80;99.90;;;;;;5029577;28;20441;-38
2022/02/26 04:59:24;;;;;;;16.23;9.00;;;4.00;99.90;;;;;;5029474;28;20775;-42
2022/02/26 05:01:49;;;;;;;14.03;9.07;;;3.60;99.90;;;;;;5029238;28;20641;-40
2022/02/26 05:04:15;;;;;;;19.00;9.70;;;3.70;99.90;;;;;;5029453;28;20285;-38
2022/02/26 05:06:41;;;;;;;14.90;10.63;;;3.40;99.90;;;;;;5022502;28;20191;-41
2022/02/26 05:09:07;;;;;;;16.27;10.17;;;3.70;99.90;;;;;;5024743;28;20548;-41
2022/02/26 05:11:32;;;;;;;20.20;10.63;;;3.50;99.90;;;;;;5028500;28;20471;-38
2022/02/26 05:13:58;;;;;;;16.90;11.63;;;3.50;99.90;;;;;;5029317;28;20186;-41
2022/02/26 05:16:24;;;;;;;14.43;11.17;;;3.40;99.90;;;;;;5029126;28;20194;-40
2022/02/26 05:18:50;;;;;;;13.97;11.17;;;3.50;99.90;;;;;;5029455;28;20282;-41
2022/02/26 05:21:16;;;;;;;17.10;11.20;;;3.60;99.90;;;;;;5035315;28;20195;-40
2022/02/26 05:23:42;;;;;;;17.73;12.37;;;3.50;99.90;;;;;;5024911;28;20249;-40
2022/02/26 05:26:14;;;;;;;21.67;12.97;;;3.70;99.90;;;;;;5028831;28;20432;-40
2022/02/26 05:28:40;;;;;;;17.70;12.03;;;3.50;99.90;;;;;;5029219;28;20413;-40
2022/02/26 05:31:06;;;;;;;19.90;12.00;;;3.60;99.90;;;;;;5026992;28;20460;-40
2022/02/26 05:33:34;;;;;;;20.63;12.50;;;3.70;99.90;;;;;;5029445;28;20790;-40
2022/02/26 05:36:00;;;;;;;17.50;13.40;;;3.40;99.90;;;;;;5026600;28;20424;-40
2022/02/26 05:38:26;;;;;;;18.97;12.30;;;3.40;99.90;;;;;;5018506;28;20814;-40
2022/02/26 05:40:52;;;;;;;19.47;13.40;;;3.60;99.90;;;;;;5027565;28;20405;-41
2022/02/26 05:43:17;;;;;;;20.47;13.60;;;3.40;99.90;;;;;;5028914;28;20421;-41
2022/02/26 05:45:43;;;;;;;19.17;13.30;;;3.50;99.90;;;;;;5028690;28;20210;-40
2022/02/26 05:48:09;;;;;;;21.67;13.93;;;3.50;99.90;;;;;;5028779;28;20199;-38
2022/02/26 05:50:35;;;;;;;23.50;13.97;;;3.40;99.90;;;;;;5028117;28;20262;-42
2022/02/26 05:53:01;;;;;;;22.77;14.17;;;3.40;99.90;;;;;;5016946;28;20190;-41
2022/02/26 05:55:27;;;;;;;22.33;13.60;;;3.10;99.90;;;;;;5027030;28;20417;-40
2022/02/26 05:57:52;;;;;;;22.80;15.63;;;3.30;99.90;;;;;;5028443;28;20556;-43
2022/02/26 06:00:18;;;;;;;25.13;15.40;;;3.00;99.90;;;;;;5026650;28;20762;-40
2022/02/26 06:02:44;;;;;;;21.50;14.70;;;3.00;99.90;;;;;;5026862;28;20194;-40
2022/02/26 06:05:10;;;;;;;28.67;15.70;;;3.10;99.90;;;;;;5028426;28;20869;-44
2022/02/26 06:07:36;;;;;;;25.07;15.43;;;3.10;99.90;;;;;;5018990;28;20222;-41
2022/02/26 06:10:03;;;;;;;26.90;16.80;;;3.10;99.90;;;;;;5025904;28;20436;-40
2022/02/26 06:12:29;;;;;;;25.00;17.07;;;3.20;99.90;;;;;;5027140;28;20475;-41
2022/02/26 06:14:55;;;;;;;27.63;16.87;;;3.10;99.90;;;;;;5027997;28;20746;-40
2022/02/26 06:17:21;;;;;;;29.60;18.30;;;3.10;99.90;;;;;;5038679;28;20950;-41
2022/02/26 06:19:47;;;;;;;31.07;17.40;;;3.10;99.90;;;;;;5044247;28;20416;-40
2022/02/26 06:22:13;;;;;;;29.23;18.13;;;3.00;99.90;;;;;;5020016;28;20691;-40
2022/02/26 06:24:39;;;;;;;28.93;17.80;;;3.00;99.90;;;;;;5022214;28;20198;-40
2022/02/26 06:27:05;;;;;;;33.00;17.50;;;3.10;99.90;;;;;;5031440;28;20536;-41
2022/02/26 06:29:30;;;;;;;27.77;18.03;;;3.00;99.90;;;;;;5028142;28;20217;-41
2022/02/26 06:31:56;;;;;;;27.90;19.20;;;3.10;99.90;;;;;;5027134;28;20186;-40
2022/02/26 06:34:22;;;;;;;33.10;18.77;;;3.00;99.90;;;;;;5023719;28;20210;-41
2022/02/26 06:36:47;;;;;;;42.13;18.47;;;3.20;99.90;;;;;;5024369;28;20193;-41
2022/02/26 06:39:14;;;;;;;31.07;19.60;;;3.10;99.90;;;;;;5019780;28;20186;-41
2022/02/26 06:41:40;;;;;;;31.60;18.50;;;3.10;99.90;;;;;;5025861;28;20673;-41
2022/02/26 06:44:06;;;;;;;37.87;18.80;;;3.20;99.90;;;;;;5027931;28;20464;-41
2022/02/26 06:46:35;;;;;;;30.93;18.80;;;2.90;99.90;;;;;;5026729;28;20850;-40
2022/02/26 06:49:02;;;;;;;31.10;19.20;;;2.80;99.90;;;;;;5027906;28;20185;-42
2022/02/26 06:51:28;;;;;;;55.00;19.73;;;3.10;99.90;;;;;;5025023;28;20452;-40
2022/02/26 06:53:54;;;;;;;50.67;18.93;;;2.80;99.90;;;;;;5013972;28;20414;-41
2022/02/26 06:56:20;;;;;;;32.60;17.80;;;2.80;99.90;;;;;;5025337;28;20947;-40
2022/02/26 06:58:45;;;;;;;30.63;17.50;;;2.80;99.90;;;;;;5023561;28;20244;-40
2022/02/26 07:01:11;;;;;;;27.13;17.43;;;2.90;99.90;;;;;;5027073;28;20561;-40
2022/02/26 07:03:37;;;;;;;47.67;19.60;;;3.10;99.90;;;;;;5027930;28;20760;-41
2022/02/26 07:06:03;;;;;;;37.13;19.27;;;3.10;99.90;;;;;;5021549;28;20285;-41
2022/02/26 07:08:29;;;;;;;30.03;17.83;;;3.10;99.90;;;;;;5014213;28;20221;-40
2022/02/26 07:10:55;;;;;;;57.37;18.73;;;2.80;99.90;;;;;;5027278;28;20441;-41
2022/02/26 07:13:21;;;;;;;51.37;20.20;;;2.90;99.90;;;;;;5027676;28;20601;-40
2022/02/26 07:15:47;;;;;;;30.63;19.63;;;2.90;99.90;;;;;;5016323;28;20421;-40
2022/02/26 07:18:12;;;;;;;29.50;18.80;;;2.80;99.90;;;;;;5029614;28;20428;-41
2022/02/26 07:20:38;;;;;;;38.43;20.17;;;2.80;99.90;;;;;;5027319;28;20729;-41
2022/02/26 07:23:04;;;;;;;39.47;19.97;;;2.60;99.90;;;;;;5017923;28;20191;-40
2022/02/26 07:25:31;;;;;;;27.70;18.27;;;2.80;99.90;;;;;;5025810;28;20606;-41
2022/02/26 07:27:57;;;;;;;31.53;18.80;;;2.80;99.90;;;;;;5026397;28;20182;-41
2022/02/26 07:30:22;;;;;;;34.90;19.00;;;3.20;99.90;;;;;;5025217;28;20429;-40
2022/02/26 07:32:48;;;;;;;42.57;17.33;;;3.30;99.90;;;;;;5028229;28;20911;-40
2022/02/26 07:35:14;;;;;;;33.17;18.97;;;3.00;99.90;;;;;;5027514;28;20281;-41
2022/02/26 07:37:42;;;;;;;37.07;19.77;;;2.90;99.90;;;;;;5021517;28;20193;-41
2022/02/26 07:40:08;;;;;;;40.20;18.50;;;3.10;99.90;;;;;;5023023;28;20182;-41
2022/02/26 07:42:34;;;;;;;53.70;19.83;;;3.00;99.90;;;;;;5027082;28;20421;-40
2022/02/26 07:44:59;;;;;;;39.83;18.30;;;3.10;99.90;;;;;;5026902;28;20632;-40
2022/02/26 07:47:25;;;;;;;33.77;17.13;;;2.90;99.90;;;;;;5027958;28;20205;-41
2022/02/26 07:49:51;;;;;;;36.10;19.47;;;3.10;99.90;;;;;;5035155;28;20737;-40
2022/02/26 07:52:17;;;;;;;32.13;18.27;;;3.20;99.90;;;;;;5026296;28;20229;-40
2022/02/26 07:54:42;;;;;;;29.60;17.93;;;3.10;99.90;;;;;;5022459;28;20265;-41
2022/02/26 07:57:08;;;;;;;35.13;18.00;;;3.20;99.90;;;;;;5027425;28;20740;-40
2022/02/26 07:59:34;;;;;;;35.90;18.50;;;3.00;99.90;;;;;;5026584;28;20187;-40
2022/02/26 08:01:59;;;;;;;29.50;18.10;;;3.10;99.90;;;;;;5026873;28;20510;-40
2022/02/26 08:04:28;;;;;;;35.30;17.00;;;2.90;99.90;;;;;;5029120;28;20794;-40
2022/02/26 08:06:55;;;;;;;40.03;17.63;;;3.10;99.90;;;;;;5030453;28;20800;-40
2022/02/26 08:09:21;;;;;;;48.83;17.83;;;3.00;99.90;;;;;;5020445;28;20780;-40
2022/02/26 08:11:46;;;;;;;41.23;18.43;;;3.00;99.90;;;;;;5030033;28;20409;-40
2022/02/26 08:14:12;;;;;;;50.90;19.13;;;2.90;99.90;;;;;;5041162;28;20790;-43
2022/02/26 08:16:38;;;;;;;35.23;18.47;;;3.00;99.90;;;;;;5044000;28;20249;-40
2022/02/26 08:19:04;;;;;;;29.90;17.13;;;3.10;99.90;;;;;;5049940;28;20186;-40
2022/02/26 08:21:34;;;;;;;50.67;19.50;;;3.20;99.90;;;;;;5032533;28;20431;-41
2022/02/26 08:24:00;;;;;;;32.20;17.57;;;3.00;99.90;;;;;;5024168;28;20523;-41
2022/02/26 08:26:25;;;;;;;29.40;16.73;;;3.10;99.90;;;;;;5029749;28;20841;-40
2022/02/26 08:28:51;;;;;;;29.93;17.13;;;3.30;99.90;;;;;;5030803;28;20413;-40
2022/02/26 08:31:17;;;;;;;34.23;16.77;;;3.30;99.90;;;;;;5029721;28;20191;-40
2022/02/26 08:33:42;;;;;;;26.80;15.87;;;3.40;99.90;;;;;;5031112;28;20683;-40
2022/02/26 08:36:08;;;;;;;36.40;17.17;;;3.60;99.90;;;;;;5047283;28;20182;-40
2022/02/26 08:38:34;;;;;;;29.00;16.10;;;3.50;99.90;;;;;;5031995;28;20831;-39
2022/02/26 08:41:00;;;;;;;32.07;17.90;;;3.40;99.90;;;;;;5027096;28;20458;-40
2022/02/26 08:43:27;;;;;;;27.30;14.83;;;3.60;99.90;;;;;;5030838;28;20269;-40
2022/02/26 08:45:53;;;;;;;33.50;17.00;;;3.80;99.90;;;;;;5033154;28;20241;-40
2022/02/26 08:48:19;;;;;;;29.13;14.50;;;3.80;99.90;;;;;;5029873;28;20992;-40
2022/02/26 08:50:44;;;;;;;24.47;16.20;;;3.60;99.90;;;;;;5020850;28;20452;-40
2022/02/26 08:53:10;;;;;;;25.63;16.30;;;3.80;99.90;;;;;;5016465;28;20204;-40
2022/02/26 08:55:36;;;;;;;27.37;15.00;;;4.10;99.90;;;;;;5028934;28;20218;-41
2022/02/26 08:58:02;;;;;;;38.77;17.00;;;4.20;99.90;;;;;;5028530;28;20495;-42
2022/02/26 09:00:28;;;;;;;36.00;16.13;;;4.30;99.90;;;;;;5026032;28;20218;-40
2022/02/26 09:02:55;;;;;;;26.33;15.03;;;4.10;99.90;;;;;;5031107;28;20695;-40
2022/02/26 09:05:20;;;;;;;26.37;15.50;;;4.20;99.90;;;;;;5030953;28;20475;-40
2022/02/26 09:07:46;;;;;;;30.00;17.07;;;4.40;99.90;;;;;;5026925;28;20941;-41
2022/02/26 09:10:13;;;;;;;39.13;16.03;;;4.20;99.90;;;;;;5022230;28;20187;-40
2022/02/26 09:12:39;;;;;;;29.60;16.00;;;4.30;99.90;;;;;;5026218;28;20182;-41
2022/02/26 09:15:05;;;;;;;27.53;15.93;;;4.20;99.90;;;;;;5024769;28;20441;-39
2022/02/26 09:17:31;;;;;;;27.80;14.47;;;4.40;99.90;;;;;;5024933;28;20187;-40
2022/02/26 09:19:56;;;;;;;27.67;13.97;;;4.30;99.90;;;;;;5031605;28;20455;-40
2022/02/26 09:22:22;;;;;;;25.00;14.30;;;4.20;99.90;;;;;;5029477;28;20204;-40
2022/02/26 09:24:48;;;;;;;25.30;14.73;;;4.20;99.90;;;;;;5019576;28;20237;-40
2022/02/26 09:27:13;;;;;;;27.03;13.77;;;4.00;99.90;;;;;;5030697;28;20179;-40
2022/02/26 09:29:39;;;;;;;28.20;15.63;;;4.20;99.90;;;;;;5030316;28;20190;-41
2022/02/26 09:32:05;;;;;;;27.40;13.70;;;4.20;99.90;;;;;;5030420;28;20657;-40
2022/02/26 09:34:31;;;;;;;25.57;13.90;;;4.50;99.90;;;;;;5030765;28;20464;-40
2022/02/26 09:36:57;;;;;;;27.33;15.83;;;4.50;99.90;;;;;;5029430;28;20993;-41
2022/02/26 09:39:23;;;;;;;26.60;14.33;;;4.70;99.90;;;;;;5024543;28;20196;-40
2022/02/26 09:41:50;;;;;;;23.50;12.60;;;4.50;99.90;;;;;;5029752;28;20646;-40
2022/02/26 09:44:16;;;;;;;26.53;13.83;;;5.00;99.90;;;;;;5027176;28;20206;-40
2022/02/26 09:46:43;;;;;;;32.27;15.43;;;5.00;99.90;;;;;;5024258;28;20531;-40
2022/02/26 09:49:09;;;;;;;26.17;14.40;;;5.50;99.90;;;;;;5029604;28;20417;-40
2022/02/26 09:51:38;;;;;;;23.60;13.87;;;5.80;99.90;;;;;;5028648;28;20425;-40
2022/02/26 09:54:04;;;;;;;26.03;14.67;;;5.90;99.90;;;;;;5022787;28;20970;-40
2022/02/26 09:56:29;;;;;;;24.87;13.40;;;6.10;99.90;;;;;;5010682;28;20536;-40
2022/02/26 09:58:55;;;;;;;25.83;14.00;;;6.50;99.90;;;;;;5026742;28;20182;-40
2022/02/26 10:01:20;;;;;;;25.80;13.50;;;7.00;99.90;;;;;;5027483;28;20186;-40
2022/02/26 10:03:46;;;;;;;29.67;15.43;;;7.40;99.90;;;;;;5027531;28;20205;-43
2022/02/26 10:06:16;;;;;;;26.53;14.60;;;7.80;99.90;;;;;;5026886;28;20198;-44
2022/02/26 10:08:47;;;;;;;26.60;14.20;;;8.20;99.90;;;;;;5023698;28;20461;-40
2022/02/26 10:11:34;;;;;;;25.77;13.80;;;8.30;99.90;;;;;;5025422;28;20911;-41
2022/02/26 10:14:15;;;;;;;28.77;13.93;;;8.50;99.90;;;;;;5026130;28;20862;-41
2022/02/26 10:16:45;;;;;;;23.90;13.70;;;9.00;99.90;;;;;;5029866;28;20431;-41
2022/02/26 10:19:17;;;;;;;23.77;13.50;;;8.80;99.90;;;;;;5029944;28;20920;-44
2022/02/26 10:21:43;;;;;;;18.27;11.87;;;8.60;99.90;;;;;;5034876;28;20423;-43
2022/02/26 10:24:12;;;;;;;24.63;11.97;;;8.50;99.90;;;;;;5031754;28;20466;-42
2022/02/26 10:26:38;;;;;;;18.90;12.90;;;8.80;99.90;;;;;;5022542;28;20584;-43
2022/02/26 10:29:09;;;;;;;18.97;12.17;;;9.20;99.90;;;;;;5029186;28;20484;-42
2022/02/26 10:31:47;;;;;;;20.37;11.80;;;9.40;99.90;;;;;;5027658;28;20413;-42
2022/02/26 10:34:31;;;;;;;20.30;12.63;;;9.60;99.90;;;;;;5022575;28;20425;-45
2022/02/26 10:37:07;;;;;;;19.37;10.87;;;10.00;99.90;;;;;;5029002;28;20421;-43
2022/02/26 10:39:46;;;;;;;19.50;10.50;;;10.00;99.90;;;;;;5018300;28;20465;-42
2022/02/26 10:42:25;;;;;;;18.47;10.67;;;10.10;99.90;;;;;;5027891;28;20433;-42
2022/02/26 10:45:08;;;;;;;15.17;8.63;;;10.30;99.90;;;;;;5028281;28;20874;-42
2022/02/26 10:47:36;;;;;;;15.37;9.50;;;10.40;99.90;;;;;;5025916;28;20961;-41
2022/02/26 10:50:23;;;;;;;16.13;9.67;;;10.20;99.90;;;;;;5025869;28;20417;-43
2022/02/26 10:52:59;;;;;;;12.67;6.30;;;10.20;99.90;;;;;;5022890;28;20475;-43
2022/02/26 10:55:53;;;;;;;12.40;8.03;;;10.40;99.90;;;;;;5023062;28;20445;-43
2022/02/26 10:58:20;;;;;;;13.73;8.03;;;10.60;99.90;;;;;;5019253;28;20442;-49
2022/02/26 11:00:47;;;;;;;11.80;4.20;;;10.50;99.90;;;;;;5021233;28;20425;-42
2022/02/26 11:03:13;;;;;;;12.30;3.87;;;10.40;99.90;;;;;;5021811;28;20433;-42
2022/02/26 11:05:39;;;;;;;7.93;4.63;;;10.40;99.70;;;;;;5021290;28;20492;-42
2022/02/26 11:08:05;;;;;;;8.03;3.33;;;10.30;99.90;;;;;;5027229;28;20433;-43
2022/02/26 11:10:32;;;;;;;11.10;2.50;;;10.10;99.90;;;;;;5015969;28;20525;-43
2022/02/26 11:12:59;;;;;;;21.53;4.07;;;10.20;99.60;;;;;;5025982;28;20433;-45
2022/02/26 11:15:31;;;;;;;9.50;3.90;;;9.90;99.90;;;;;;5029642;28;20421;-42
2022/02/26 11:18:00;;;;;;;8.80;4.40;;;9.70;99.90;;;;;;5026577;28;20433;-42
2022/02/26 11:20:26;;;;;;;7.83;2.90;;;9.70;99.90;;;;;;5022648;28;20457;-39
2022/02/26 11:22:57;;;;;;;8.53;2.60;;;10.00;99.80;;;;;;5026486;28;20425;-44
2022/02/26 11:25:24;;;;;;;11.97;2.73;;;9.80;99.70;;;;;;5010226;28;20472;-42
2022/02/26 11:27:50;;;;;;;6.53;2.50;;;9.70;99.90;;;;;;5026845;28;20429;-42
2022/02/26 11:30:29;;;;;;;6.07;2.70;;;9.80;99.80;;;;;;5026804;28;20540;-45
2022/02/26 11:32:56;;;;;;;11.70;2.27;;;9.70;99.90;;;;;;5022335;28;20184;-41
2022/02/26 11:35:26;;;;;;;6.50;2.10;;;9.70;97.80;;;;;;5028381;28;20425;-42
2022/02/26 11:37:56;;;;;;;8.70;2.73;;;9.80;99.70;;;;;;5026530;28;20436;-42
2022/02/26 11:40:23;;;;;;;9.40;2.60;;;9.90;98.20;;;;;;5019099;28;21009;-43
2022/02/26 11:42:49;;;;;;;5.73;2.50;;;9.90;98.80;;;;;;5031508;28;20433;-43
2022/02/26 11:45:41;;;;;;;6.70;2.60;;;10.10;97.50;;;;;;5028214;28;20456;-44
2022/02/26 11:48:08;;;;;;;6.93;2.37;;;10.10;98.40;;;;;;5029064;28;20429;-42
2022/02/26 11:50:39;;;;;;;8.00;2.70;;;10.20;96.80;;;;;;5023968;28;20991;-43
2022/02/26 11:53:09;;;;;;;7.33;2.30;;;10.60;97.60;;;;;;5027869;28;20516;-42
2022/02/26 11:55:39;;;;;;;6.97;2.57;;;10.80;98.90;;;;;;5021376;28;20440;-42
2022/02/26 11:58:17;;;;;;;7.63;2.90;;;10.90;96.60;;;;;;5030996;28;20448;-42
2022/02/26 12:00:54;;;;;;;9.50;2.83;;;11.20;95.50;;;;;;5028716;28;20826;-41
2022/02/26 12:03:31;;;;;;;10.03;3.37;;;11.30;96.30;;;;;;5028982;28;20440;-42
2022/02/26 12:06:09;;;;;;;8.30;3.00;;;11.40;93.90;;;;;;5032203;28;20467;-43
2022/02/26 12:08:55;;;;;;;72.43;11.03;;;11.20;94.60;;;;;;5030707;28;20841;-42
2022/02/26 12:11:21;;;;;;;5.67;3.23;;;11.10;94.90;;;;;;5028810;28;20421;-42
2022/02/26 12:13:48;;;;;;;13.40;3.17;;;10.80;93.30;;;;;;5024697;28;20436;-44
2022/02/26 12:16:22;;;;;;;8.50;3.00;;;11.00;94.90;;;;;;5032096;28;20186;-44
2022/02/26 12:18:54;;;;;;;15.50;3.83;;;10.70;97.20;;;;;;5031144;28;20417;-44
2022/02/26 12:21:20;;;;;;;4.83;2.30;;;10.90;98.40;;;;;;5034813;28;20428;-42
2022/02/26 12:24:08;;;;;;;13.40;3.60;;;11.00;96.50;;;;;;5026991;28;20409;-43
2022/02/26 12:26:44;;;;;;;9.60;3.40;;;11.30;95.80;;;;;;5028739;28;20788;-42
2022/02/26 12:29:41;;;;;;;7.97;3.20;;;11.50;96.10;;;;;;5027635;28;21038;-44
2022/02/26 12:32:07;;;;;;;6.37;2.30;;;11.50;97.30;;;;;;5022457;28;20479;-41
2022/02/26 12:34:48;;;;;;;8.07;4.23;;;11.50;95.60;;;;;;5030194;28;20421;-40
2022/02/26 12:37:28;;;;;;;11.53;3.13;;;11.80;95.90;;;;;;5029432;28;20499;-41
2022/02/26 12:40:05;;;;;;;13.23;3.77;;;11.80;93.50;;;;;;5020078;28;20809;-43
2022/02/26 12:42:37;;;;;;;6.83;3.33;;;11.40;93.70;;;;;;5028631;28;20433;-42
2022/02/26 12:45:05;;;;;;;7.87;3.20;;;11.00;94.00;;;;;;5031097;28;20555;-42